sensor_id;sensor_type;location;lat;lon;timestamp;pressure;altitude;pressure_sealevel;temperature;humidity
50702;BME280;36670;50.094;8.496;2022-08-01T00:02:00;100249.81;;;24.48;50.02
50702;BME280;36670;50.094;8.496;2022-08-01T00:04:26;100258.50;;;24.43;50.66
50702;BME280;36670;50.094;8.496;2022-08-01T00:06:51;100254.25;;;24.37;50.93
50702;BME280;36670;50.094;8.496;2022-08-01T00:09:16;100261.63;;;24.29;50.91
50702;BME280;36670;50.094;8.496;2022-08-01T00:11:42;100249.03;;;24.27;50.75
50702;BME280;36670;50.094;8.496;2022-08-01T00:14:07;100252.16;;;24.13;51.33
50702;BME280;36670;50.094;8.496;2022-08-01T00:16:35;100248.25;;;24.05;51.12
50702;BME280;36670;50.094;8.496;2022-08-01T00:19:00;100248.72;;;24.07;51.37
50702;BME280;36670;50.094;8.496;2022-08-01T00:21:25;100253.06;;;24.05;51.43
50702;BME280;36670;50.094;8.496;2022-08-01T00:23:50;100248.19;;;23.93;52.08
50702;BME280;36670;50.094;8.496;2022-08-01T00:26:16;100251.63;;;23.98;51.62
50702;BME280;36670;50.094;8.496;2022-08-01T00:28:41;100255.06;;;24.04;51.79
50702;BME280;36670;50.094;8.496;2022-08-01T00:31:07;100257.47;;;23.93;51.72
50702;BME280;36670;50.094;8.496;2022-08-01T00:33:33;100255.50;;;23.85;52.69
50702;BME280;36670;50.094;8.496;2022-08-01T00:35:58;100253.19;;;23.87;52.18
50702;BME280;36670;50.094;8.496;2022-08-01T00:38:23;100261.03;;;23.81;52.39
50702;BME280;36670;50.094;8.496;2022-08-01T00:40:50;100259.97;;;23.86;52.06
50702;BME280;36670;50.094;8.496;2022-08-01T00:43:15;100258.78;;;23.96;51.51
50702;BME280;36670;50.094;8.496;2022-08-01T00:45:41;100265.47;;;23.82;52.37
50702;BME280;36670;50.094;8.496;2022-08-01T00:48:06;100265.13;;;23.84;52.24
50702;BME280;36670;50.094;8.496;2022-08-01T00:50:32;100270.44;;;23.85;52.18
50702;BME280;36670;50.094;8.496;2022-08-01T00:52:59;100266.97;;;23.89;52.08
50702;BME280;36670;50.094;8.496;2022-08-01T00:55:26;100269.09;;;23.92;52.12
50702;BME280;36670;50.094;8.496;2022-08-01T00:57:52;100263.09;;;23.93;51.57
50702;BME280;36670;50.094;8.496;2022-08-01T01:00:17;100260.13;;;23.90;51.77
50702;BME280;36670;50.094;8.496;2022-08-01T01:02:43;100267.78;;;23.89;51.61
50702;BME280;36670;50.094;8.496;2022-08-01T01:05:09;100268.78;;;23.84;51.76
50702;BME280;36670;50.094;8.496;2022-08-01T01:07:51;100261.34;;;23.80;51.98
50702;BME280;36670;50.094;8.496;2022-08-01T01:10:30;100267.69;;;23.77;52.36
50702;BME280;36670;50.094;8.496;2022-08-01T01:13:09;100263.53;;;23.74;51.89
50702;BME280;36670;50.094;8.496;2022-08-01T01:15:40;100264.84;;;23.77;52.06
50702;BME280;36670;50.094;8.496;2022-08-01T01:20:43;100275.84;;;23.48;52.96
50702;BME280;36670;50.094;8.496;2022-08-01T01:29:11;100280.50;;;23.44;53.52
50702;BME280;36670;50.094;8.496;2022-08-01T01:31:46;100281.53;;;23.40;53.86
50702;BME280;36670;50.094;8.496;2022-08-01T01:34:14;100285.50;;;23.39;53.74
50702;BME280;36670;50.094;8.496;2022-08-01T01:36:42;100286.13;;;23.44;53.37
50702;BME280;36670;50.094;8.496;2022-08-01T01:39:09;100286.31;;;23.39;53.40
50702;BME280;36670;50.094;8.496;2022-08-01T01:41:36;100295.75;;;23.43;53.70
50702;BME280;36670;50.094;8.496;2022-08-01T01:44:04;100286.47;;;23.43;53.63
50702;BME280;36670;50.094;8.496;2022-08-01T01:46:31;100291.25;;;23.42;53.60
50702;BME280;36670;50.094;8.496;2022-08-01T01:48:58;100289.53;;;23.29;54.19
50702;BME280;36670;50.094;8.496;2022-08-01T01:51:25;100286.38;;;23.30;54.18
50702;BME280;36670;50.094;8.496;2022-08-01T01:53:53;100286.75;;;23.11;55.33
50702;BME280;36670;50.094;8.496;2022-08-01T01:56:24;100292.00;;;22.83;56.44
50702;BME280;36670;50.094;8.496;2022-08-01T01:58:53;100288.84;;;22.84;56.10
50702;BME280;36670;50.094;8.496;2022-08-01T02:01:22;100290.31;;;22.91;55.68
50702;BME280;36670;50.094;8.496;2022-08-01T02:03:49;100285.16;;;23.01;55.73
50702;BME280;36670;50.094;8.496;2022-08-01T02:06:16;100296.28;;;22.98;55.61
50702;BME280;36670;50.094;8.496;2022-08-01T02:08:43;100292.13;;;22.95;55.74
50702;BME280;36670;50.094;8.496;2022-08-01T02:11:10;100291.78;;;22.97;55.83
50702;BME280;36670;50.094;8.496;2022-08-01T02:13:52;100294.09;;;23.04;55.57
50702;BME280;36670;50.094;8.496;2022-08-01T02:16:21;100306.47;;;23.11;55.45
50702;BME280;36670;50.094;8.496;2022-08-01T02:18:48;100300.03;;;23.11;55.18
50702;BME280;36670;50.094;8.496;2022-08-01T02:21:16;100294.09;;;23.12;55.23
50702;BME280;36670;50.094;8.496;2022-08-01T02:23:45;100294.91;;;23.04;55.68
50702;BME280;36670;50.094;8.496;2022-08-01T02:26:14;100303.34;;;23.04;55.29
50702;BME280;36670;50.094;8.496;2022-08-01T02:28:45;100302.88;;;23.02;55.49
50702;BME280;36670;50.094;8.496;2022-08-01T02:31:14;100311.50;;;22.97;55.61
50702;BME280;36670;50.094;8.496;2022-08-01T02:33:49;100298.63;;;22.87;55.98
50702;BME280;36670;50.094;8.496;2022-08-01T02:36:19;100307.22;;;22.82;55.87
50702;BME280;36670;50.094;8.496;2022-08-01T02:38:45;100295.50;;;22.80;56.41
50702;BME280;36670;50.094;8.496;2022-08-01T02:41:16;100294.84;;;22.65;56.21
50702;BME280;36670;50.094;8.496;2022-08-01T02:43:48;100296.34;;;22.63;56.39
50702;BME280;36670;50.094;8.496;2022-08-01T02:46:22;100294.72;;;22.62;56.04
50702;BME280;36670;50.094;8.496;2022-08-01T02:48:52;100292.88;;;22.57;56.67
50702;BME280;36670;50.094;8.496;2022-08-01T02:51:19;100299.19;;;22.54;56.56
50702;BME280;36670;50.094;8.496;2022-08-01T02:53:48;100289.75;;;22.50;56.89
50702;BME280;36670;50.094;8.496;2022-08-01T02:56:16;100293.06;;;22.43;57.10
50702;BME280;36670;50.094;8.496;2022-08-01T02:58:44;100295.91;;;22.35;57.75
50702;BME280;36670;50.094;8.496;2022-08-01T03:01:11;100293.91;;;22.26;57.70
50702;BME280;36670;50.094;8.496;2022-08-01T03:03:39;100295.88;;;22.17;58.16
50702;BME280;36670;50.094;8.496;2022-08-01T03:06:05;100285.63;;;22.21;58.06
50702;BME280;36670;50.094;8.496;2022-08-01T03:08:32;100290.94;;;22.14;58.17
50702;BME280;36670;50.094;8.496;2022-08-01T03:11:01;100297.41;;;22.14;58.16
50702;BME280;36670;50.094;8.496;2022-08-01T03:13:28;100300.22;;;22.14;58.19
50702;BME280;36670;50.094;8.496;2022-08-01T03:15:56;100317.53;;;21.90;59.33
50702;BME280;36670;50.094;8.496;2022-08-01T03:18:24;100308.13;;;22.04;58.67
50702;BME280;36670;50.094;8.496;2022-08-01T03:20:52;100303.19;;;22.09;58.61
50702;BME280;36670;50.094;8.496;2022-08-01T03:23:20;100297.03;;;22.07;58.89
50702;BME280;36670;50.094;8.496;2022-08-01T03:25:49;100312.25;;;22.15;58.45
50702;BME280;36670;50.094;8.496;2022-08-01T03:28:15;100304.31;;;21.99;59.00
50702;BME280;36670;50.094;8.496;2022-08-01T03:30:42;100300.53;;;22.04;58.93
50702;BME280;36670;50.094;8.496;2022-08-01T03:33:08;100309.47;;;22.15;58.78
50702;BME280;36670;50.094;8.496;2022-08-01T03:35:38;100312.25;;;22.24;58.55
50702;BME280;36670;50.094;8.496;2022-08-01T03:38:08;100306.16;;;22.22;58.72
50702;BME280;36670;50.094;8.496;2022-08-01T03:40:39;100314.75;;;22.16;59.10
50702;BME280;36670;50.094;8.496;2022-08-01T03:43:12;100319.06;;;22.23;58.62
50702;BME280;36670;50.094;8.496;2022-08-01T03:45:43;100314.91;;;22.29;58.57
50702;BME280;36670;50.094;8.496;2022-08-01T03:48:16;100323.69;;;22.36;58.56
50702;BME280;36670;50.094;8.496;2022-08-01T03:50:46;100321.38;;;22.21;59.19
50702;BME280;36670;50.094;8.496;2022-08-01T03:53:13;100323.50;;;22.24;59.05
50702;BME280;36670;50.094;8.496;2022-08-01T03:55:41;100318.53;;;22.29;58.98
50702;BME280;36670;50.094;8.496;2022-08-01T03:58:08;100315.72;;;22.29;59.08
50702;BME280;36670;50.094;8.496;2022-08-01T04:00:37;100318.59;;;22.38;58.67
50702;BME280;36670;50.094;8.496;2022-08-01T04:03:05;100306.50;;;22.38;58.60
50702;BME280;36670;50.094;8.496;2022-08-01T04:05:32;100311.47;;;22.41;58.62
50702;BME280;36670;50.094;8.496;2022-08-01T04:07:57;100311.78;;;22.39;58.86
50702;BME280;36670;50.094;8.496;2022-08-01T04:10:25;100309.75;;;22.31;58.91
50702;BME280;36670;50.094;8.496;2022-08-01T04:12:51;100306.66;;;22.32;58.49
50702;BME280;36670;50.094;8.496;2022-08-01T04:15:17;100306.66;;;22.32;59.05
50702;BME280;36670;50.094;8.496;2022-08-01T04:17:42;100314.13;;;22.37;58.90
50702;BME280;36670;50.094;8.496;2022-08-01T04:20:09;100313.28;;;22.37;58.89
50702;BME280;36670;50.094;8.496;2022-08-01T04:22:34;100314.44;;;22.36;59.00
50702;BME280;36670;50.094;8.496;2022-08-01T04:25:02;100321.41;;;22.38;58.95
50702;BME280;36670;50.094;8.496;2022-08-01T04:27:39;100311.13;;;22.42;59.05
50702;BME280;36670;50.094;8.496;2022-08-01T04:30:06;100316.91;;;22.46;58.85
50702;BME280;36670;50.094;8.496;2022-08-01T04:32:34;100325.84;;;22.57;58.55
50702;BME280;36670;50.094;8.496;2022-08-01T04:35:05;100325.16;;;22.60;58.93
50702;BME280;36670;50.094;8.496;2022-08-01T04:37:32;100328.31;;;22.58;58.43
50702;BME280;36670;50.094;8.496;2022-08-01T04:40:00;100332.75;;;22.68;58.58
50702;BME280;36670;50.094;8.496;2022-08-01T04:42:26;100340.38;;;22.76;58.34
50702;BME280;36670;50.094;8.496;2022-08-01T04:44:53;100328.63;;;22.74;58.69
50702;BME280;36670;50.094;8.496;2022-08-01T04:47:18;100339.56;;;22.76;58.75
50702;BME280;36670;50.094;8.496;2022-08-01T04:49:45;100330.56;;;22.82;59.08
50702;BME280;36670;50.094;8.496;2022-08-01T04:52:11;100341.47;;;23.01;58.57
50702;BME280;36670;50.094;8.496;2022-08-01T04:54:36;100342.94;;;23.08;58.53
50702;BME280;36670;50.094;8.496;2022-08-01T04:57:03;100351.84;;;23.18;57.95
50702;BME280;36670;50.094;8.496;2022-08-01T04:59:32;100347.38;;;23.26;57.57
50702;BME280;36670;50.094;8.496;2022-08-01T05:02:09;100350.66;;;23.37;57.66
50702;BME280;36670;50.094;8.496;2022-08-01T05:04:35;100351.00;;;23.27;57.56
50702;BME280;36670;50.094;8.496;2022-08-01T05:07:01;100356.69;;;23.18;58.01
50702;BME280;36670;50.094;8.496;2022-08-01T05:09:26;100348.91;;;23.15;58.06
50702;BME280;36670;50.094;8.496;2022-08-01T05:11:51;100348.56;;;23.16;58.07
50702;BME280;36670;50.094;8.496;2022-08-01T05:14:17;100345.00;;;23.37;57.71
50702;BME280;36670;50.094;8.496;2022-08-01T05:16:42;100354.72;;;23.48;57.46
50702;BME280;36670;50.094;8.496;2022-08-01T05:19:08;100362.38;;;23.39;57.30
50702;BME280;36670;50.094;8.496;2022-08-01T05:21:34;100361.41;;;23.35;57.61
50702;BME280;36670;50.094;8.496;2022-08-01T05:24:00;100364.03;;;23.40;57.58
50702;BME280;36670;50.094;8.496;2022-08-01T05:26:25;100365.06;;;23.35;57.66
50702;BME280;36670;50.094;8.496;2022-08-01T05:28:50;100371.13;;;23.46;57.68
50702;BME280;36670;50.094;8.496;2022-08-01T05:31:16;100366.28;;;23.56;57.51
50702;BME280;36670;50.094;8.496;2022-08-01T05:33:42;100370.78;;;23.57;57.46
50702;BME280;36670;50.094;8.496;2022-08-01T05:36:07;100371.88;;;23.64;57.42
50702;BME280;36670;50.094;8.496;2022-08-01T05:38:33;100369.06;;;23.64;56.83
50702;BME280;36670;50.094;8.496;2022-08-01T05:40:59;100370.53;;;23.71;57.01
50702;BME280;36670;50.094;8.496;2022-08-01T05:43:24;100377.66;;;23.68;57.46
50702;BME280;36670;50.094;8.496;2022-08-01T05:45:49;100383.00;;;23.61;57.60
50702;BME280;36670;50.094;8.496;2022-08-01T05:48:16;100378.19;;;23.61;57.24
50702;BME280;36670;50.094;8.496;2022-08-01T05:50:41;100379.00;;;23.62;57.56
50702;BME280;36670;50.094;8.496;2022-08-01T05:53:06;100373.94;;;23.55;57.93
50702;BME280;36670;50.094;8.496;2022-08-01T05:55:32;100383.69;;;23.58;57.28
50702;BME280;36670;50.094;8.496;2022-08-01T05:57:57;100378.81;;;23.67;57.08
50702;BME280;36670;50.094;8.496;2022-08-01T06:00:23;100394.69;;;23.80;56.70
50702;BME280;36670;50.094;8.496;2022-08-01T06:02:48;100383.13;;;23.73;56.55
50702;BME280;36670;50.094;8.496;2022-08-01T06:05:14;100384.00;;;23.56;57.55
50702;BME280;36670;50.094;8.496;2022-08-01T06:07:39;100384.66;;;23.62;57.58
50702;BME280;36670;50.094;8.496;2022-08-01T06:10:06;100382.91;;;23.78;56.93
50702;BME280;36670;50.094;8.496;2022-08-01T06:12:35;100383.63;;;24.05;56.77
50702;BME280;36670;50.094;8.496;2022-08-01T06:15:02;100384.44;;;24.27;56.21
50702;BME280;36670;50.094;8.496;2022-08-01T06:17:28;100384.94;;;24.50;56.49
50702;BME280;36670;50.094;8.496;2022-08-01T06:19:53;100389.88;;;24.74;55.79
50702;BME280;36670;50.094;8.496;2022-08-01T06:22:19;100392.78;;;24.99;55.17
50702;BME280;36670;50.094;8.496;2022-08-01T06:24:44;100400.38;;;25.19;55.21
50702;BME280;36670;50.094;8.496;2022-08-01T06:27:10;100394.94;;;25.14;54.17
50702;BME280;36670;50.094;8.496;2022-08-01T06:29:35;100400.97;;;25.13;54.64
50702;BME280;36670;50.094;8.496;2022-08-01T06:32:01;100388.56;;;25.05;54.51
50702;BME280;36670;50.094;8.496;2022-08-01T06:34:26;100405.25;;;24.64;55.07
50702;BME280;36670;50.094;8.496;2022-08-01T06:36:52;100396.50;;;24.57;55.37
50702;BME280;36670;50.094;8.496;2022-08-01T06:39:17;100396.69;;;24.73;55.14
50702;BME280;36670;50.094;8.496;2022-08-01T06:41:43;100407.38;;;24.88;55.50
50702;BME280;36670;50.094;8.496;2022-08-01T06:44:11;100393.25;;;25.01;54.87
50702;BME280;36670;50.094;8.496;2022-08-01T06:46:36;100397.94;;;24.97;55.17
50702;BME280;36670;50.094;8.496;2022-08-01T06:49:02;100403.78;;;25.13;55.01
50702;BME280;36670;50.094;8.496;2022-08-01T06:51:27;100408.22;;;25.01;54.23
50702;BME280;36670;50.094;8.496;2022-08-01T06:53:53;100402.94;;;25.00;54.71
50702;BME280;36670;50.094;8.496;2022-08-01T06:56:19;100408.44;;;24.96;54.03
50702;BME280;36670;50.094;8.496;2022-08-01T06:58:44;100408.38;;;24.84;54.93
50702;BME280;36670;50.094;8.496;2022-08-01T07:01:10;100406.41;;;24.84;55.27
50702;BME280;36670;50.094;8.496;2022-08-01T07:03:36;100408.13;;;25.10;55.32
50702;BME280;36670;50.094;8.496;2022-08-01T07:06:02;100403.59;;;25.30;54.63
50702;BME280;36670;50.094;8.496;2022-08-01T07:08:28;100401.16;;;25.41;54.22
50702;BME280;36670;50.094;8.496;2022-08-01T07:10:53;100402.94;;;25.46;54.08
50702;BME280;36670;50.094;8.496;2022-08-01T07:13:19;100395.69;;;25.24;54.15
50702;BME280;36670;50.094;8.496;2022-08-01T07:15:48;100398.31;;;25.41;53.80
50702;BME280;36670;50.094;8.496;2022-08-01T07:18:13;100397.03;;;25.51;53.16
50702;BME280;36670;50.094;8.496;2022-08-01T07:20:39;100393.41;;;25.50;53.25
50702;BME280;36670;50.094;8.496;2022-08-01T07:23:04;100387.50;;;25.43;53.40
50702;BME280;36670;50.094;8.496;2022-08-01T07:25:30;100397.63;;;25.69;53.28
50702;BME280;36670;50.094;8.496;2022-08-01T07:27:55;100396.09;;;25.96;53.67
50702;BME280;36670;50.094;8.496;2022-08-01T07:30:20;100394.69;;;26.02;52.44
50702;BME280;36670;50.094;8.496;2022-08-01T07:32:46;100398.34;;;25.78;51.73
50702;BME280;36670;50.094;8.496;2022-08-01T07:35:11;100387.06;;;26.03;52.98
50702;BME280;36670;50.094;8.496;2022-08-01T07:37:37;100389.16;;;26.06;52.39
50702;BME280;36670;50.094;8.496;2022-08-01T07:40:03;100394.50;;;26.36;52.11
50702;BME280;36670;50.094;8.496;2022-08-01T07:42:30;100390.81;;;25.95;51.55
50702;BME280;36670;50.094;8.496;2022-08-01T07:44:55;100395.88;;;25.89;51.79
50702;BME280;36670;50.094;8.496;2022-08-01T07:47:24;100396.84;;;26.05;51.76
50702;BME280;36670;50.094;8.496;2022-08-01T07:49:50;100383.97;;;25.83;51.94
50702;BME280;36670;50.094;8.496;2022-08-01T07:52:16;100382.69;;;25.81;52.43
50702;BME280;36670;50.094;8.496;2022-08-01T07:54:41;100384.22;;;26.15;51.72
50702;BME280;36670;50.094;8.496;2022-08-01T07:57:07;100382.91;;;26.00;51.89
50702;BME280;36670;50.094;8.496;2022-08-01T07:59:32;100379.81;;;26.18;51.80
50702;BME280;36670;50.094;8.496;2022-08-01T08:01:58;100387.50;;;25.93;51.81
50702;BME280;36670;50.094;8.496;2022-08-01T08:04:24;100382.56;;;26.02;51.59
50702;BME280;36670;50.094;8.496;2022-08-01T08:06:49;100386.53;;;26.26;51.39
50702;BME280;36670;50.094;8.496;2022-08-01T08:09:15;100388.09;;;26.11;51.57
50702;BME280;36670;50.094;8.496;2022-08-01T08:11:44;100393.19;;;25.68;52.15
50702;BME280;36670;50.094;8.496;2022-08-01T08:14:09;100392.56;;;25.37;52.17
50702;BME280;36670;50.094;8.496;2022-08-01T08:16:35;100393.88;;;25.40;53.34
50702;BME280;36670;50.094;8.496;2022-08-01T08:19:00;100390.19;;;25.39;53.19
50702;BME280;36670;50.094;8.496;2022-08-01T08:21:25;100391.25;;;25.35;53.75
50702;BME280;36670;50.094;8.496;2022-08-01T08:23:51;100400.63;;;25.27;53.63
50702;BME280;36670;50.094;8.496;2022-08-01T08:26:35;100395.19;;;25.21;53.16
50702;BME280;36670;50.094;8.496;2022-08-01T08:29:00;100399.75;;;25.01;53.66
50702;BME280;36670;50.094;8.496;2022-08-01T08:31:25;100397.31;;;25.12;53.90
50702;BME280;36670;50.094;8.496;2022-08-01T08:33:51;100402.81;;;25.09;54.16
50702;BME280;36670;50.094;8.496;2022-08-01T08:36:16;100405.69;;;25.21;53.28
50702;BME280;36670;50.094;8.496;2022-08-01T08:38:42;100404.09;;;25.32;54.12
50702;BME280;36670;50.094;8.496;2022-08-01T08:41:08;100409.53;;;25.50;53.53
50702;BME280;36670;50.094;8.496;2022-08-01T08:43:35;100413.28;;;25.66;53.29
50702;BME280;36670;50.094;8.496;2022-08-01T08:46:00;100406.25;;;25.85;52.77
50702;BME280;36670;50.094;8.496;2022-08-01T08:48:26;100417.78;;;25.92;52.29
50702;BME280;36670;50.094;8.496;2022-08-01T08:50:52;100410.38;;;25.87;53.01
50702;BME280;36670;50.094;8.496;2022-08-01T08:53:18;100407.19;;;25.89;52.52
50702;BME280;36670;50.094;8.496;2022-08-01T08:55:44;100409.53;;;26.12;52.32
50702;BME280;36670;50.094;8.496;2022-08-01T08:58:12;100405.63;;;26.29;51.43
50702;BME280;36670;50.094;8.496;2022-08-01T09:00:39;100404.22;;;26.22;51.53
50702;BME280;36670;50.094;8.496;2022-08-01T09:03:05;100399.72;;;26.34;50.59
50702;BME280;36670;50.094;8.496;2022-08-01T09:05:31;100398.50;;;26.47;51.12
50702;BME280;36670;50.094;8.496;2022-08-01T09:07:57;100399.00;;;26.78;50.43
50702;BME280;36670;50.094;8.496;2022-08-01T09:10:22;100400.19;;;27.21;50.20
50702;BME280;36670;50.094;8.496;2022-08-01T09:13:09;100399.31;;;27.49;50.53
50702;BME280;36670;50.094;8.496;2022-08-01T09:15:45;100388.78;;;27.81;49.22
50702;BME280;36670;50.094;8.496;2022-08-01T09:18:34;100387.84;;;28.09;47.71
50702;BME280;36670;50.094;8.496;2022-08-01T09:23:36;100393.06;;;28.82;46.55
50702;BME280;36670;50.094;8.496;2022-08-01T09:26:05;100385.69;;;28.77;45.77
50702;BME280;36670;50.094;8.496;2022-08-01T09:28:31;100396.34;;;28.84;46.36
50702;BME280;36670;50.094;8.496;2022-08-01T09:30:57;100389.06;;;29.06;45.36
50702;BME280;36670;50.094;8.496;2022-08-01T09:33:22;100388.59;;;29.23;45.22
50702;BME280;36670;50.094;8.496;2022-08-01T09:35:55;100387.56;;;29.12;44.26
50702;BME280;36670;50.094;8.496;2022-08-01T09:38:23;100385.34;;;29.02;44.91
50702;BME280;36670;50.094;8.496;2022-08-01T09:43:17;100390.75;;;28.87;44.75
50702;BME280;36670;50.094;8.496;2022-08-01T09:45:43;100379.00;;;28.89;42.72
50702;BME280;36670;50.094;8.496;2022-08-01T09:48:09;100385.50;;;28.50;44.03
50702;BME280;36670;50.094;8.496;2022-08-01T09:50:42;100387.59;;;28.53;44.16
50702;BME280;36670;50.094;8.496;2022-08-01T09:53:08;100390.00;;;28.51;44.80
50702;BME280;36670;50.094;8.496;2022-08-01T09:55:34;100392.16;;;28.58;44.39
50702;BME280;36670;50.094;8.496;2022-08-01T09:57:59;100386.84;;;28.56;44.70
50702;BME280;36670;50.094;8.496;2022-08-01T10:00:27;100394.72;;;28.43;44.17
50702;BME280;36670;50.094;8.496;2022-08-01T10:02:52;100393.34;;;28.37;44.53
50702;BME280;36670;50.094;8.496;2022-08-01T10:05:33;100393.72;;;28.55;44.79
50702;BME280;36670;50.094;8.496;2022-08-01T10:08:03;100391.03;;;28.43;44.58
50702;BME280;36670;50.094;8.496;2022-08-01T10:10:30;100387.13;;;28.32;44.46
50702;BME280;36670;50.094;8.496;2022-08-01T10:12:58;100399.28;;;28.68;45.64
50702;BME280;36670;50.094;8.496;2022-08-01T10:15:25;100386.50;;;29.20;44.36
50702;BME280;36670;50.094;8.496;2022-08-01T10:17:56;100374.94;;;29.09;42.64
50702;BME280;36670;50.094;8.496;2022-08-01T10:20:27;100383.56;;;29.36;43.80
50702;BME280;36670;50.094;8.496;2022-08-01T10:22:53;100382.47;;;29.68;42.67
50702;BME280;36670;50.094;8.496;2022-08-01T10:25:20;100378.06;;;29.97;43.41
50702;BME280;36670;50.094;8.496;2022-08-01T10:27:48;100373.47;;;30.16;41.69
50702;BME280;36670;50.094;8.496;2022-08-01T10:30:14;100370.56;;;29.85;41.91
50702;BME280;36670;50.094;8.496;2022-08-01T10:32:40;100376.78;;;29.68;41.71
50702;BME280;36670;50.094;8.496;2022-08-01T10:35:08;100375.06;;;29.17;42.15
50702;BME280;36670;50.094;8.496;2022-08-01T10:37:34;100372.41;;;29.04;42.96
50702;BME280;36670;50.094;8.496;2022-08-01T10:40:01;100364.38;;;29.10;43.18
50702;BME280;36670;50.094;8.496;2022-08-01T10:42:27;100372.91;;;28.87;42.98
50702;BME280;36670;50.094;8.496;2022-08-01T10:44:53;100366.53;;;29.17;43.73
50702;BME280;36670;50.094;8.496;2022-08-01T10:47:24;100363.84;;;29.47;43.33
50702;BME280;36670;50.094;8.496;2022-08-01T10:50:04;100353.44;;;29.82;42.56
50702;BME280;36670;50.094;8.496;2022-08-01T10:52:32;100353.09;;;29.87;41.90
50702;BME280;36670;50.094;8.496;2022-08-01T10:55:05;100359.66;;;30.18;42.58
50702;BME280;36670;50.094;8.496;2022-08-01T10:57:47;100351.44;;;30.43;40.39
50702;BME280;36670;50.094;8.496;2022-08-01T11:00:21;100362.66;;;29.98;40.70
50702;BME280;36670;50.094;8.496;2022-08-01T11:03:00;100360.50;;;29.91;40.21
50702;BME280;36670;50.094;8.496;2022-08-01T11:05:28;100347.28;;;29.53;40.65
50702;BME280;36670;50.094;8.496;2022-08-01T11:07:55;100348.34;;;29.44;41.15
50702;BME280;36670;50.094;8.496;2022-08-01T11:12:56;100349.09;;;28.75;42.21
50702;BME280;36670;50.094;8.496;2022-08-01T11:15:22;100338.91;;;29.37;41.82
50702;BME280;36670;50.094;8.496;2022-08-01T11:17:51;100339.91;;;29.48;41.88
50702;BME280;36670;50.094;8.496;2022-08-01T11:20:25;100345.94;;;29.96;41.79
50702;BME280;36670;50.094;8.496;2022-08-01T11:25:23;100342.56;;;29.37;40.83
50702;BME280;36670;50.094;8.496;2022-08-01T11:27:48;100334.56;;;29.23;41.03
50702;BME280;36670;50.094;8.496;2022-08-01T11:32:49;100330.09;;;29.45;41.29
50702;BME280;36670;50.094;8.496;2022-08-01T11:35:15;100321.69;;;29.29;41.61
50702;BME280;36670;50.094;8.496;2022-08-01T11:37:40;100321.50;;;29.69;42.06
50702;BME280;36670;50.094;8.496;2022-08-01T11:40:16;100327.88;;;29.85;40.39
50702;BME280;36670;50.094;8.496;2022-08-01T11:42:41;100315.88;;;30.29;39.86
50702;BME280;36670;50.094;8.496;2022-08-01T11:45:07;100314.78;;;30.72;39.83
50702;BME280;36670;50.094;8.496;2022-08-01T11:47:49;100316.34;;;31.03;38.93
50702;BME280;36670;50.094;8.496;2022-08-01T11:50:35;100311.75;;;31.36;38.81
50702;BME280;36670;50.094;8.496;2022-08-01T11:53:05;100304.03;;;31.40;37.61
50702;BME280;36670;50.094;8.496;2022-08-01T11:55:31;100302.75;;;31.30;37.70
50702;BME280;36670;50.094;8.496;2022-08-01T11:58:20;100303.09;;;31.74;38.38
50702;BME280;36670;50.094;8.496;2022-08-01T12:01:04;100298.03;;;32.15;36.88
50702;BME280;36670;50.094;8.496;2022-08-01T12:03:31;100297.19;;;32.15;35.32
50702;BME280;36670;50.094;8.496;2022-08-01T12:05:58;100301.94;;;31.89;36.37
50702;BME280;36670;50.094;8.496;2022-08-01T12:08:30;100291.66;;;31.74;34.59
50702;BME280;36670;50.094;8.496;2022-08-01T12:10:58;100291.19;;;31.64;36.34
50702;BME280;36670;50.094;8.496;2022-08-01T12:13:24;100291.03;;;31.46;35.22
50702;BME280;36670;50.094;8.496;2022-08-01T12:15:50;100290.47;;;31.26;37.08
50702;BME280;36670;50.094;8.496;2022-08-01T12:18:15;100287.31;;;31.39;36.72
50702;BME280;36670;50.094;8.496;2022-08-01T12:20:43;100287.63;;;31.26;36.78
50702;BME280;36670;50.094;8.496;2022-08-01T12:23:11;100281.94;;;31.26;36.95
50702;BME280;36670;50.094;8.496;2022-08-01T12:25:37;100292.91;;;31.24;36.72
50702;BME280;36670;50.094;8.496;2022-08-01T12:28:06;100285.38;;;31.54;36.81
50702;BME280;36670;50.094;8.496;2022-08-01T12:30:34;100293.38;;;31.93;35.44
50702;BME280;36670;50.094;8.496;2022-08-01T12:33:01;100279.94;;;31.97;34.37
50702;BME280;36670;50.094;8.496;2022-08-01T12:35:28;100286.63;;;32.23;35.33
50702;BME280;36670;50.094;8.496;2022-08-01T12:37:58;100278.78;;;32.02;34.80
50702;BME280;36670;50.094;8.496;2022-08-01T12:40:29;100281.81;;;31.68;35.63
50702;BME280;36670;50.094;8.496;2022-08-01T12:43:04;100281.38;;;31.62;36.12
50702;BME280;36670;50.094;8.496;2022-08-01T12:45:41;100291.59;;;31.14;35.91
50702;BME280;36670;50.094;8.496;2022-08-01T12:48:12;100285.56;;;30.82;35.55
50702;BME280;36670;50.094;8.496;2022-08-01T12:50:41;100293.03;;;30.56;34.80
50702;BME280;36670;50.094;8.496;2022-08-01T12:53:10;100286.94;;;30.24;35.49
50702;BME280;36670;50.094;8.496;2022-08-01T12:55:46;100292.09;;;30.45;36.15
50702;BME280;36670;50.094;8.496;2022-08-01T12:58:14;100296.91;;;30.75;36.47
50702;BME280;36670;50.094;8.496;2022-08-01T13:00:41;100294.91;;;30.79;36.48
50702;BME280;36670;50.094;8.496;2022-08-01T13:03:10;100276.47;;;31.10;36.41
50702;BME280;36670;50.094;8.496;2022-08-01T13:08:09;100288.28;;;31.09;35.90
50702;BME280;36670;50.094;8.496;2022-08-01T13:10:35;100279.88;;;30.44;36.20
50702;BME280;36670;50.094;8.496;2022-08-01T13:13:00;100282.34;;;30.46;36.12
50702;BME280;36670;50.094;8.496;2022-08-01T13:15:33;100290.19;;;30.56;35.74
50702;BME280;36670;50.094;8.496;2022-08-01T13:18:00;100295.81;;;30.19;37.46